Time,TemperatureF,DewpointF,PressureIn,WindDirection,WindDirectionDegrees,WindSpeedMPH,WindSpeedGustMPH,Humidity,HourlyPrecipIn,Conditions,Clouds,dailyrainin,SoftwareType,DateUTC
2013-02-08 00:01:00,40.7,-41.7,30.06,WSW,237,0.0,0.0,2,0.00,RA,,0.00,WeatherDisplay:10.37,2013-02-08 08:01:00,
2013-02-08 00:06:00,40.3,-42.0,30.06,WSW,237,0.0,0.0,2,0.00,RA,,0.00,WeatherDisplay:10.37,2013-02-08 08:06:00,
2013-02-08 00:11:00,41.0,-41.5,30.06,WSW,237,0.0,0.0,2,0.00,CLR,,0.00,WeatherDisplay:10.37,2013-02-08 08:11:00,
2013-02-08 00:16:00,41.4,-41.2,30.06,WSW,237,0.0,0.0,2,0.00,CLR,,0.00,WeatherDisplay:10.37,2013-02-08 08:16:00,
2013-02-08 00:21:00,40.4,-41.9,30.06,WSW,237,0.0,0.0,2,0.00,CLR,,0.00,WeatherDisplay:10.37,2013-02-08 08:21:00,
2013-02-08 00:26:00,39.6,-42.4,30.06,WSW,237,0.0,0.0,2,0.00,CLR,,0.00,WeatherDisplay:10.37,2013-02-08 08:26:00,
2013-02-08 00:31:00,39.2,-42.7,30.06,WSW,237,0.0,0.0,2,0.00,CLR,,0.00,WeatherDisplay:10.37,2013-02-08 08:31:00,
2013-02-08 00:36:00,39.8,-42.3,30.05,NW,325,0.0,0.0,2,0.00,CLR,,0.00,WeatherDisplay:10.37,2013-02-08 08:36:00,
2013-02-08 00:41:00,39.6,-42.4,30.05,WSW,254,1.1,1.1,2,0.00,CLR,,0.00,WeatherDisplay:10.37,2013-02-08 08:41:00,
2013-02-08 00:46:00,40.0,-42.2,30.05,West,260,3.5,3.5,2,0.00,CLR,,0.00,WeatherDisplay:10.37,2013-02-08 08:46:00,
2013-02-08 00:51:00,40.2,-42.0,30.04,WSW,241,3.5,3.5,2,0.00,CLR,,0.00,WeatherDisplay:10.37,2013-02-08 08:51:00,
2013-02-08 00:56:00,40.4,-41.9,30.04,SSW,208,0.0,0.0,2,0.00,CLR,,0.00,WeatherDisplay:10.37,2013-02-08 08:56:00,
2013-02-08 01:01:00,41.0,-41.5,30.05,SSW,208,0.0,0.0,2,0.00,CLR,,0.00,WeatherDisplay:10.37,2013-02-08 09:01:00,
2013-02-08 01:06:00,40.7,-41.7,30.04,SSW,208,0.0,0.0,2,0.00,CLR,,0.00,WeatherDisplay:10.37,2013-02-08 09:06:00,
2013-02-08 01:11:00,39.5,-42.5,30.04,SSW,208,0.0,0.0,2,0.00,CLR,,0.00,WeatherDisplay:10.37,2013-02-08 09:11:00,
2013-02-08 01:16:00,40.8,-41.6,30.04,SSW,208,0.0,0.0,2,0.00,CLR,,0.00,WeatherDisplay:10.37,2013-02-08 09:16:00,
2013-02-08 01:21:00,40.6,-41.8,30.04,WNW,288,2.3,2.3,2,0.00,CLR,,0.00,WeatherDisplay:10.37,2013-02-08 09:21:00,
2013-02-08 01:26:00,40.4,-41.9,30.04,WNW,288,0.0,0.0,2,0.00,CLR,,0.00,WeatherDisplay:10.37,2013-02-08 09:26:00,
2013-02-08 01:31:00,39.8,-42.3,30.04,WNW,288,0.0,0.0,2,0.00,CLR,,0.00,WeatherDisplay:10.37,2013-02-08 09:31:00,
2013-02-08 01:36:00,39.9,-42.2,30.04,WNW,288,0.0,0.0,2,0.00,CLR,,0.00,WeatherDisplay:10.37,2013-02-08 09:36:00,
2013-02-08 01:41:00,39.7,-42.4,30.04,WNW,288,0.0,0.0,2,0.00,CLR,,0.00,WeatherDisplay:10.37,2013-02-08 09:41:00,
2013-02-08 01:46:00,39.0,-42.8,30.04,WNW,288,0.0,0.0,2,0.00,CLR,,0.00,WeatherDisplay:10.37,2013-02-08 09:46:00,
2013-02-08 01:51:00,39.1,-42.8,30.04,WNW,288,0.0,0.0,2,0.00,CLR,,0.00,WeatherDisplay:10.37,2013-02-08 09:51:00,
2013-02-08 01:56:00,38.7,-43.0,30.04,WNW,288,0.0,0.0,2,0.00,CLR,,0.00,WeatherDisplay:10.37,2013-02-08 09:56:00,
2013-02-08 02:01:00,39.0,-42.8,30.04,WNW,288,0.0,0.0,2,0.00,CLR,,0.00,WeatherDisplay:10.37,2013-02-08 10:01:00,
2013-02-08 02:06:00,39.7,-42.4,30.04,WNW,288,0.0,0.0,2,0.00,CLR,,0.00,WeatherDisplay:10.37,2013-02-08 10:06:00,
2013-02-08 02:11:00,39.6,-42.4,30.04,WNW,288,0.0,0.0,2,0.00,CLR,,0.00,WeatherDisplay:10.37,2013-02-08 10:11:00,
2013-02-08 02:16:00,38.6,-43.1,30.04,WNW,302,2.1,2.1,2,0.00,CLR,,0.00,WeatherDisplay:10.37,2013-02-08 10:16:00,
2013-02-08 02:21:00,38.7,-43.0,30.04,WNW,301,0.0,0.0,2,0.00,CLR,,0.00,WeatherDisplay:10.37,2013-02-08 10:21:00,
2013-02-08 02:26:00,38.6,-43.1,30.03,WNW,298,2.3,2.3,2,0.00,CLR,,0.00,WeatherDisplay:10.37,2013-02-08 10:26:00,
2013-02-08 02:31:00,39.3,-42.6,30.03,NW,320,0.0,0.0,2,0.00,CLR,,0.00,WeatherDisplay:10.37,2013-02-08 10:31:00,
2013-02-08 02:36:00,39.8,-42.3,30.03,WNW,289,2.3,2.3,2,0.00,CLR,,0.00,WeatherDisplay:10.37,2013-02-08 10:36:00,
2013-02-08 02:41:00,40.3,-42.0,30.03,NW,326,2.3,2.3,2,0.00,CLR,,0.00,WeatherDisplay:10.37,2013-02-08 10:41:00,
2013-02-08 02:46:00,41.3,-41.3,30.03,WNW,294,0.0,0.0,2,0.00,CLR,,0.00,WeatherDisplay:10.37,2013-02-08 10:46:00,
2013-02-08 02:51:00,41.6,-41.1,30.03,WNW,294,0.0,0.0,2,0.00,CLR,,0.00,WeatherDisplay:10.37,2013-02-08 10:51:00,
2013-02-08 02:56:00,41.8,-41.0,30.03,NNW,336,0.0,0.6,2,0.00,CLR,,0.00,WeatherDisplay:10.37,2013-02-08 10:56:00,
2013-02-08 03:01:00,41.6,-41.1,30.03,NNW,336,0.0,0.0,2,0.00,CLR,,0.00,WeatherDisplay:10.37,2013-02-08 11:01:00,
2013-02-08 03:06:00,40.3,-42.0,30.03,NNW,336,0.0,0.0,2,0.00,CLR,,0.00,WeatherDisplay:10.37,2013-02-08 11:06:00,
2013-02-08 03:11:00,39.6,-42.4,30.03,NNW,336,0.0,0.0,2,0.00,CLR,,0.00,WeatherDisplay:10.37,2013-02-08 11:11:00,
2013-02-08 03:16:00,39.5,-42.5,30.03,WSW,244,3.5,3.5,2,0.00,CLR,,0.00,WeatherDisplay:10.37,2013-02-08 11:16:00,
2013-02-08 03:21:00,39.9,-42.2,30.03,WSW,244,0.0,0.0,2,0.00,CLR,,0.00,WeatherDisplay:10.37,2013-02-08 11:21:00,
2013-02-08 03:26:00,39.9,-42.2,30.02,WSW,244,0.0,0.0,2,0.00,CLR,,0.00,WeatherDisplay:10.37,2013-02-08 11:26:00,
2013-02-08 03:31:00,41.0,-41.5,30.03,WSW,244,0.0,0.0,2,0.00,CLR,,0.00,WeatherDisplay:10.37,2013-02-08 11:31:00,
2013-02-08 03:36:00,40.1,-42.1,30.02,WSW,244,0.0,0.0,2,0.00,CLR,,0.00,WeatherDisplay:10.37,2013-02-08 11:36:00,
2013-02-08 03:41:00,39.9,-42.2,30.03,WSW,244,0.0,0.0,2,0.00,CLR,,0.00,WeatherDisplay:10.37,2013-02-08 11:41:00,
2013-02-08 03:46:00,39.3,-42.6,30.02,WSW,244,0.0,0.0,2,0.00,CLR,,0.00,WeatherDisplay:10.37,2013-02-08 11:46:00,
2013-02-08 03:51:00,39.7,-42.4,30.02,WSW,244,0.0,0.0,2,0.00,CLR,,0.00,WeatherDisplay:10.37,2013-02-08 11:51:00,
2013-02-08 03:56:00,39.7,-42.4,30.02,WSW,244,0.0,0.0,2,0.00,CLR,,0.00,WeatherDisplay:10.37,2013-02-08 11:56:00,
2013-02-08 04:01:00,39.7,-42.4,30.02,WSW,244,0.0,0.0,2,0.00,CLR,,0.00,WeatherDisplay:10.37,2013-02-08 12:01:00,
2013-02-08 04:06:00,39.5,-42.5,30.02,WSW,244,0.0,0.0,2,0.00,CLR,,0.00,WeatherDisplay:10.37,2013-02-08 12:06:00,
2013-02-08 04:11:00,39.9,-42.2,30.02,WSW,244,0.0,0.0,2,0.00,CLR,,0.00,WeatherDisplay:10.37,2013-02-08 12:11:00,
2013-02-08 04:16:00,39.4,-42.6,30.02,WSW,244,0.0,0.0,2,0.00,CLR,,0.00,WeatherDisplay:10.37,2013-02-08 12:16:00,
2013-02-08 04:21:00,39.2,-42.7,30.02,West,268,2.7,2.7,2,0.00,CLR,,0.00,WeatherDisplay:10.37,2013-02-08 12:21:00,
2013-02-08 04:26:00,39.5,-42.5,30.02,West,280,2.3,2.3,2,0.00,CLR,,0.00,WeatherDisplay:10.37,2013-02-08 12:26:00,
2013-02-08 04:31:00,40.0,-42.2,30.02,West,275,3.5,3.5,2,0.00,CLR,,0.00,WeatherDisplay:10.37,2013-02-08 12:31:00,
2013-02-08 04:36:00,40.9,-41.6,30.03,NW,308,1.1,1.1,2,0.00,CLR,,0.00,WeatherDisplay:10.37,2013-02-08 12:36:00,
2013-02-08 04:41:00,41.3,-41.3,30.03,West,275,3.5,3.5,2,0.00,CLR,,0.00,WeatherDisplay:10.37,2013-02-08 12:41:00,
2013-02-08 04:46:00,41.6,-41.1,30.03,NW,311,3.5,3.5,2,0.00,CLR,,0.00,WeatherDisplay:10.37,2013-02-08 12:46:00,
2013-02-08 04:51:00,41.7,-41.0,30.03,NW,308,4.6,4.6,2,0.00,CLR,,0.00,WeatherDisplay:10.37,2013-02-08 12:51:00,
2013-02-08 04:56:00,41.5,-41.2,30.03,NNW,343,3.5,3.5,2,0.00,CLR,,0.00,WeatherDisplay:10.37,2013-02-08 12:56:00,
2013-02-08 05:01:00,41.6,-41.1,30.03,WNW,299,3.5,3.5,2,0.00,CLR,,0.00,WeatherDisplay:10.37,2013-02-08 13:01:00,
2013-02-08 05:06:00,41.9,-40.9,30.03,NW,308,2.3,2.3,2,0.00,CLR,,0.00,WeatherDisplay:10.37,2013-02-08 13:06:00,
2013-02-08 05:11:00,42.0,-40.8,30.03,NW,325,2.3,2.3,2,0.00,CLR,,0.00,WeatherDisplay:10.37,2013-02-08 13:11:00,
2013-02-08 05:16:00,42.2,-40.7,30.03,WNW,291,2.3,2.3,2,0.00,CLR,,0.00,WeatherDisplay:10.37,2013-02-08 13:16:00,
2013-02-08 05:21:00,42.2,-40.7,30.03,NW,319,3.5,3.5,2,0.00,CLR,,0.00,WeatherDisplay:10.37,2013-02-08 13:21:00,
2013-02-08 05:26:00,42.3,-40.6,30.03,WNW,284,1.1,1.1,2,0.00,CLR,,0.00,WeatherDisplay:10.37,2013-02-08 13:26:00,
2013-02-08 05:31:00,42.3,-40.6,30.03,NW,320,4.6,4.6,2,0.00,CLR,,0.00,WeatherDisplay:10.37,2013-02-08 13:31:00,
2013-02-08 05:36:00,42.2,-40.7,30.02,NW,308,3.5,3.5,2,0.00,CLR,,0.00,WeatherDisplay:10.37,2013-02-08 13:36:00,
2013-02-08 05:41:00,42.2,-40.7,30.02,NW,316,2.3,2.3,2,0.00,CLR,,0.00,WeatherDisplay:10.37,2013-02-08 13:41:00,
2013-02-08 05:46:00,41.9,-40.9,30.02,NW,316,2.3,2.3,2,0.00,CLR,,0.00,WeatherDisplay:10.37,2013-02-08 13:46:00,
2013-02-08 05:51:00,41.9,-40.9,30.02,NW,325,1.1,1.1,2,0.00,CLR,,0.00,WeatherDisplay:10.37,2013-02-08 13:51:00,
2013-02-08 05:56:00,41.6,-41.1,30.02,NW,316,0.0,0.0,2,0.00,CLR,,0.00,WeatherDisplay:10.37,2013-02-08 13:56:00,
2013-02-08 06:01:00,41.3,-41.3,30.02,WNW,288,2.3,2.3,2,0.00,CLR,,0.00,WeatherDisplay:10.37,2013-02-08 14:01:00,
2013-02-08 06:06:00,41.3,-41.3,30.02,WSW,258,0.0,0.0,2,0.00,CLR,,0.00,WeatherDisplay:10.37,2013-02-08 14:06:00,
2013-02-08 06:11:00,41.6,-41.1,30.02,WNW,284,0.0,0.0,2,0.00,CLR,,0.00,WeatherDisplay:10.37,2013-02-08 14:11:00,
2013-02-08 06:16:00,41.8,-41.0,30.02,WNW,284,0.0,0.0,2,0.00,CLR,,0.00,WeatherDisplay:10.37,2013-02-08 14:16:00,
2013-02-08 06:21:00,41.5,-41.2,30.02,WNW,284,0.0,0.0,2,0.00,CLR,,0.00,WeatherDisplay:10.37,2013-02-08 14:21:00,
2013-02-08 06:26:00,41.0,-41.5,30.02,WNW,284,0.0,0.0,2,0.00,CLR,,0.00,WeatherDisplay:10.37,2013-02-08 14:26:00,
2013-02-08 06:31:00,40.9,-41.6,30.03,WNW,284,0.0,0.0,2,0.00,CLR,,0.00,WeatherDisplay:10.37,2013-02-08 14:31:00,
2013-02-08 06:36:00,40.3,-42.0,30.03,WNW,284,0.0,0.0,2,0.00,CLR,,0.00,WeatherDisplay:10.37,2013-02-08 14:36:00,
2013-02-08 06:41:00,39.9,-42.2,30.03,WNW,284,0.0,0.0,2,0.00,CLR,,0.00,WeatherDisplay:10.37,2013-02-08 14:41:00,
2013-02-08 06:46:00,40.1,-42.1,30.03,WNW,284,0.0,0.0,2,0.00,CLR,,0.00,WeatherDisplay:10.37,2013-02-08 14:46:00,
2013-02-08 06:51:00,39.6,-42.4,30.03,WNW,284,0.0,0.0,2,0.00,CLR,,0.00,WeatherDisplay:10.37,2013-02-08 14:51:00,
2013-02-08 06:56:00,40.2,-42.0,30.03,WNW,284,0.0,0.0,2,0.00,CLR,,0.00,WeatherDisplay:10.37,2013-02-08 14:56:00,
2013-02-08 07:01:00,39.3,-42.6,30.03,WNW,284,0.0,0.0,2,0.00,CLR,,0.00,WeatherDisplay:10.37,2013-02-08 15:01:00,
2013-02-08 07:06:00,39.1,-42.8,30.03,WNW,284,0.0,0.0,2,0.00,CLR,,0.00,WeatherDisplay:10.37,2013-02-08 15:06:00,
2013-02-08 07:11:00,38.8,-43.0,30.03,WNW,284,0.0,0.0,2,0.00,CLR,,0.00,WeatherDisplay:10.37,2013-02-08 15:11:00,
2013-02-08 07:16:00,38.5,-43.2,30.04,WNW,284,0.0,0.0,2,0.00,CLR,,0.00,WeatherDisplay:10.37,2013-02-08 15:16:00,
2013-02-08 07:21:00,39.3,-42.6,30.04,WNW,284,0.0,0.0,2,0.00,CLR,,0.00,WeatherDisplay:10.37,2013-02-08 15:21:00,
2013-02-08 07:26:00,38.7,-43.0,30.04,WNW,284,0.0,0.0,2,0.00,CLR,,0.00,WeatherDisplay:10.37,2013-02-08 15:26:00,
2013-02-08 07:31:00,38.9,-42.9,30.04,WNW,284,0.0,0.0,2,0.00,CLR,,0.00,WeatherDisplay:10.37,2013-02-08 15:31:00,
2013-02-08 07:36:00,38.4,-43.2,30.04,WNW,282,1.9,1.9,2,0.00,CLR,,0.00,WeatherDisplay:10.37,2013-02-08 15:36:00,
2013-02-08 07:41:00,39.0,-42.8,30.05,WSW,258,2.3,2.3,2,0.00,CLR,,0.00,WeatherDisplay:10.37,2013-02-08 15:41:00,
2013-02-08 07:46:00,39.4,-42.6,30.05,WSW,243,2.3,2.3,2,0.00,CLR,,0.00,WeatherDisplay:10.37,2013-02-08 15:46:00,
2013-02-08 07:51:00,40.2,-42.0,30.05,WSW,251,0.0,0.0,2,0.00,CLR,,0.00,WeatherDisplay:10.37,2013-02-08 15:51:00,
2013-02-08 07:56:00,40.2,-42.0,30.05,WSW,251,0.0,0.0,2,0.00,CLR,,0.00,WeatherDisplay:10.37,2013-02-08 15:56:00,
2013-02-08 08:01:00,40.4,-41.9,30.05,WSW,247,0.0,0.0,2,0.00,CLR,,0.00,WeatherDisplay:10.37,2013-02-08 16:01:00,
2013-02-08 08:06:00,41.2,-41.4,30.06,WSW,247,0.0,0.0,2,0.00,CLR,,0.00,WeatherDisplay:10.37,2013-02-08 16:06:00,
2013-02-08 08:11:00,41.6,-41.1,30.06,WSW,247,0.0,0.0,2,0.00,CLR,,0.00,WeatherDisplay:10.37,2013-02-08 16:11:00,
2013-02-08 08:16:00,42.1,-40.8,30.06,WSW,247,0.0,0.0,2,0.00,CLR,,0.00,WeatherDisplay:10.37,2013-02-08 16:16:00,
2013-02-08 08:21:00,42.6,-40.4,30.06,WSW,247,0.0,0.0,2,0.00,CLR,,0.00,WeatherDisplay:10.37,2013-02-08 16:21:00,
2013-02-08 08:26:00,43.4,-39.9,30.06,WSW,247,0.0,0.0,2,0.00,CLR,,0.00,WeatherDisplay:10.37,2013-02-08 16:26:00,
2013-02-08 08:31:00,44.5,-39.2,30.06,West,270,0.0,0.0,2,0.00,CLR,,0.00,WeatherDisplay:10.37,2013-02-08 16:31:00,
2013-02-08 08:36:00,45.0,-38.8,30.07,SSE,164,0.0,0.0,2,0.00,CLR,,0.00,WeatherDisplay:10.37,2013-02-08 16:36:00,
2013-02-08 08:41:00,45.2,-38.7,30.07,SSE,152,0.0,0.0,2,0.00,CLR,,0.00,WeatherDisplay:10.37,2013-02-08 16:41:00,
2013-02-08 08:46:00,44.9,-38.9,30.07,SSE,160,0.0,0.0,2,0.00,CLR,,0.00,WeatherDisplay:10.37,2013-02-08 16:46:00,
2013-02-08 08:51:00,44.6,-39.1,30.07,SE,137,3.5,3.5,2,0.00,CLR,,0.00,WeatherDisplay:10.37,2013-02-08 16:51:00,
2013-02-08 08:56:00,45.6,-38.5,30.07,ESE,112,2.3,2.3,2,0.00,CLR,,0.00,WeatherDisplay:10.37,2013-02-08 16:56:00,
2013-02-08 09:01:00,46.6,-37.8,30.07,ESE,107,1.1,1.1,2,0.00,CLR,,0.00,WeatherDisplay:10.37,2013-02-08 17:01:00,
2013-02-08 09:06:00,46.4,-37.9,30.07,East,93,2.3,2.3,2,0.00,CLR,,0.00,WeatherDisplay:10.37,2013-02-08 17:06:00,
2013-02-08 09:11:00,47.4,-37.3,30.07,ESE,113,2.3,2.3,2,0.00,CLR,,0.00,WeatherDisplay:10.37,2013-02-08 17:11:00,
2013-02-08 09:16:00,47.7,-37.1,30.08,East,93,2.3,2.3,2,0.00,CLR,,0.00,WeatherDisplay:10.37,2013-02-08 17:16:00,
2013-02-08 09:21:00,49.0,-36.2,30.07,ESE,102,1.1,1.1,2,0.00,CLR,,0.00,WeatherDisplay:10.37,2013-02-08 17:21:00,
2013-02-08 09:26:00,48.6,-36.5,30.07,NNE,28,0.0,0.0,2,0.00,CLR,,0.00,WeatherDisplay:10.37,2013-02-08 17:26:00,
2013-02-08 09:31:00,49.3,-36.0,30.07,SSW,192,3.5,3.5,2,0.00,CLR,,0.00,WeatherDisplay:10.37,2013-02-08 17:31:00,
2013-02-08 09:36:00,49.8,-35.7,30.07,ENE,66,4.6,4.6,2,0.00,CLR,,0.00,WeatherDisplay:10.37,2013-02-08 17:36:00,
2013-02-08 09:41:00,49.8,-35.7,30.08,East,96,4.6,4.6,2,0.00,CLR,,0.00,WeatherDisplay:10.37,2013-02-08 17:41:00,
2013-02-08 09:46:00,50.8,-35.0,30.08,ENE,72,2.3,2.3,2,0.00,CLR,,0.00,WeatherDisplay:10.37,2013-02-08 17:46:00,
2013-02-08 09:51:00,50.0,-35.5,30.08,ENE,72,0.0,0.0,2,0.00,CLR,,0.00,WeatherDisplay:10.37,2013-02-08 17:51:00,
2013-02-08 09:56:00,50.3,-35.3,30.08,NNE,13,3.5,0.0,2,0.00,CLR,,0.00,WeatherDisplay:10.37,2013-02-08 17:56:00,
2013-02-08 10:01:00,50.5,-35.2,30.08,NNE,25,3.5,0.0,2,0.00,CLR,,0.00,WeatherDisplay:10.37,2013-02-08 18:01:00,
2013-02-08 10:06:00,50.7,-35.1,30.08,ESE,109,5.8,5.8,2,0.00,CLR,,0.00,WeatherDisplay:10.37,2013-02-08 18:06:00,
2013-02-08 10:11:00,50.4,-35.3,30.08,West,265,5.8,5.8,2,0.00,CLR,,0.00,WeatherDisplay:10.37,2013-02-08 18:11:00,
2013-02-08 10:16:00,50.3,-35.3,30.08,West,270,5.9,5.9,2,0.00,CLR,,0.00,WeatherDisplay:10.37,2013-02-08 18:16:00,
2013-02-08 10:21:00,50.7,-35.1,30.08,NW,304,5.8,5.8,2,0.00,CLR,,0.00,WeatherDisplay:10.37,2013-02-08 18:21:00,
2013-02-08 10:26:00,50.9,-35.0,30.08,WNW,295,4.6,4.6,2,0.00,CLR,,0.00,WeatherDisplay:10.37,2013-02-08 18:26:00,
2013-02-08 10:32:00,51.0,-34.9,30.08,West,274,4.6,4.6,2,0.00,CLR,,0.00,WeatherDisplay:10.37,2013-02-08 18:32:00,
2013-02-08 10:37:00,50.8,-35.0,30.08,West,275,5.8,5.8,2,0.00,CLR,,0.00,WeatherDisplay:10.37,2013-02-08 18:37:00,
2013-02-08 10:42:00,50.7,-35.1,30.08,WNW,287,4.6,4.6,2,0.00,CLR,,0.00,WeatherDisplay:10.37,2013-02-08 18:42:00,
2013-02-08 10:47:00,51.0,-34.9,30.08,West,275,1.1,0.0,2,0.00,CLR,,0.00,WeatherDisplay:10.37,2013-02-08 18:47:00,
2013-02-08 10:52:00,51.6,-34.5,30.08,North,349,4.6,4.6,2,0.00,CLR,,0.00,WeatherDisplay:10.37,2013-02-08 18:52:00,
2013-02-08 10:57:00,51.7,-34.4,30.08,North,349,0.0,0.0,2,0.00,CLR,,0.00,WeatherDisplay:10.37,2013-02-08 18:57:00,
2013-02-08 11:02:00,51.6,-34.5,30.08,SW,232,4.6,4.6,2,0.00,CLR,,0.00,WeatherDisplay:10.37,2013-02-08 19:02:00,
2013-02-08 11:07:00,51.7,-34.4,30.07,West,270,3.5,3.5,2,0.00,CLR,,0.00,WeatherDisplay:10.37,2013-02-08 19:07:00,
2013-02-08 11:12:00,52.3,-34.0,30.07,WNW,287,2.3,0.0,2,0.00,CLR,,0.00,WeatherDisplay:10.37,2013-02-08 19:12:00,
2013-02-08 11:17:00,51.4,-34.6,30.07,WNW,291,2.3,2.3,2,0.00,CLR,,0.00,WeatherDisplay:10.37,2013-02-08 19:17:00,
2013-02-08 11:22:00,52.0,-34.2,30.07,ESE,114,3.8,3.8,2,0.00,CLR,,0.00,WeatherDisplay:10.37,2013-02-08 19:22:00,
2013-02-08 11:27:00,51.7,-34.4,30.07,SE,126,4.6,4.6,2,0.00,CLR,,0.00,WeatherDisplay:10.37,2013-02-08 19:27:00,
2013-02-08 11:32:00,52.7,-33.8,30.06,ESE,117,4.6,4.6,2,0.00,CLR,,0.00,WeatherDisplay:10.37,2013-02-08 19:32:00,
2013-02-08 11:37:00,53.4,-33.3,30.06,SSE,157,2.8,2.8,2,0.00,CLR,,0.00,WeatherDisplay:10.37,2013-02-08 19:37:00,
2013-02-08 11:42:00,53.2,-33.4,30.06,East,89,4.6,4.6,2,0.00,CLR,,0.00,WeatherDisplay:10.37,2013-02-08 19:42:00,
2013-02-08 11:47:00,52.7,-33.8,30.06,SE,133,2.3,2.3,2,0.00,CLR,,0.00,WeatherDisplay:10.37,2013-02-08 19:47:00,
2013-02-08 11:52:00,53.5,-33.2,30.06,ESE,106,5.8,5.8,2,0.00,CLR,,0.00,WeatherDisplay:10.37,2013-02-08 19:52:00,
2013-02-08 11:57:00,54.2,-32.8,30.06,SSE,147,4.6,4.6,2,0.00,CLR,,0.00,WeatherDisplay:10.37,2013-02-08 19:57:00,
2013-02-08 12:02:00,55.6,-31.9,30.05,ESE,123,3.5,3.5,2,0.00,CLR,,0.00,WeatherDisplay:10.37,2013-02-08 20:02:00,
2013-02-08 12:07:00,55.7,-31.8,30.05,SE,141,3.8,3.8,2,0.00,CLR,,0.00,WeatherDisplay:10.37,2013-02-08 20:07:00,
2013-02-08 12:12:00,55.7,-31.8,30.05,East,96,4.6,4.6,2,0.00,CLR,,0.00,WeatherDisplay:10.37,2013-02-08 20:12:00,
2013-02-08 12:17:00,56.7,-31.1,30.05,South,189,1.1,0.0,2,0.00,CLR,,0.00,WeatherDisplay:10.37,2013-02-08 20:17:00,
2013-02-08 12:22:00,57.0,-30.9,30.04,SE,124,5.8,5.8,2,0.00,CLR,,0.00,WeatherDisplay:10.37,2013-02-08 20:22:00,
2013-02-08 12:27:00,56.2,41.2,30.04,ESE,123,6.9,6.9,57,0.00,CLR,,0.00,WeatherDisplay:10.37,2013-02-08 20:27:00,
2013-02-08 12:32:00,56.2,41.2,30.04,East,96,6.9,6.9,57,0.00,CLR,,0.00,WeatherDisplay:10.37,2013-02-08 20:32:00,
2013-02-08 12:37:00,56.7,41.6,30.04,NNW,328,2.3,2.3,57,0.00,CLR,,0.00,WeatherDisplay:10.37,2013-02-08 20:37:00,
2013-02-08 12:42:00,56.5,41.4,30.04,West,260,2.3,2.3,57,0.00,CLR,,0.00,WeatherDisplay:10.37,2013-02-08 20:42:00,
2013-02-08 12:47:00,56.0,41.0,30.03,SW,234,0.0,0.0,57,0.00,CLR,,0.00,WeatherDisplay:10.37,2013-02-08 20:47:00,
2013-02-08 12:52:00,56.3,41.3,30.03,SW,224,0.0,0.0,57,0.00,CLR,,0.00,WeatherDisplay:10.37,2013-02-08 20:52:00,
2013-02-08 12:57:00,57.8,42.7,30.03,North,8,3.1,3.1,57,0.00,CLR,,0.00,WeatherDisplay:10.37,2013-02-08 20:57:00,
2013-02-08 13:02:00,58.0,42.8,30.03,ESE,104,5.9,5.9,57,0.00,CLR,,0.00,WeatherDisplay:10.37,2013-02-08 21:02:00,
2013-02-08 13:07:00,57.3,42.2,30.03,East,83,3.5,3.5,57,0.00,CLR,,0.00,WeatherDisplay:10.37,2013-02-08 21:07:00,
2013-02-08 13:12:00,58.3,43.1,30.02,ENE,68,0.0,0.0,57,0.00,CLR,,0.00,WeatherDisplay:10.37,2013-02-08 21:12:00,
2013-02-08 13:17:00,59.1,43.9,30.02,East,86,5.8,5.8,57,0.00,CLR,,0.00,WeatherDisplay:10.37,2013-02-08 21:17:00,
2013-02-08 13:22:00,58.1,42.9,30.01,South,172,2.3,2.3,57,0.00,CLR,,0.00,WeatherDisplay:10.37,2013-02-08 21:22:00,
2013-02-08 13:27:00,59.2,44.0,30.01,South,181,5.8,5.8,57,0.00,CLR,,0.00,WeatherDisplay:10.37,2013-02-08 21:27:00,
2013-02-08 13:32:00,60.1,44.8,30.01,South,181,4.6,4.6,57,0.00,CLR,,0.00,WeatherDisplay:10.37,2013-02-08 21:32:00,
2013-02-08 13:37:00,59.9,44.6,30.01,West,271,6.2,6.2,57,0.00,CLR,,0.00,WeatherDisplay:10.37,2013-02-08 21:37:00,
2013-02-08 13:42:00,60.0,44.7,30.00,WNW,288,4.6,4.6,57,0.00,CLR,,0.00,WeatherDisplay:10.37,2013-02-08 21:42:00,
2013-02-08 13:47:00,61.7,46.3,30.00,WNW,291,7.1,7.1,57,0.00,CLR,,0.00,WeatherDisplay:10.37,2013-02-08 21:47:00,
2013-02-08 13:52:00,60.9,45.6,30.00,West,277,9.2,9.2,57,0.00,CLR,,0.00,WeatherDisplay:10.37,2013-02-08 21:52:00,
2013-02-08 13:57:00,61.1,45.7,30.00,WNW,299,13.8,13.8,57,0.00,CLR,,0.00,WeatherDisplay:10.37,2013-02-08 21:57:00,
2013-02-08 14:02:00,61.9,46.5,30.00,WNW,288,9.7,9.7,57,0.00,CLR,,0.00,WeatherDisplay:10.37,2013-02-08 22:02:00,
2013-02-08 14:07:00,61.8,46.4,29.99,West,264,8.1,8.1,57,0.00,CLR,,0.00,WeatherDisplay:10.37,2013-02-08 22:07:00,
2013-02-08 14:12:00,61.1,45.7,29.99,WNW,292,9.2,9.2,57,0.00,CLR,,0.00,WeatherDisplay:10.37,2013-02-08 22:12:00,
2013-02-08 14:17:00,61.9,46.5,29.99,WNW,302,15.0,15.0,57,0.00,CLR,,0.00,WeatherDisplay:10.37,2013-02-08 22:17:00,
2013-02-08 14:22:00,61.7,46.3,29.99,NW,306,13.8,13.8,57,0.00,CLR,,0.00,WeatherDisplay:10.37,2013-02-08 22:22:00,
2013-02-08 14:27:00,61.9,46.5,29.99,WNW,289,13.8,13.8,57,0.00,CLR,,0.00,WeatherDisplay:10.37,2013-02-08 22:27:00,
2013-02-08 14:32:00,60.8,45.5,29.99,WNW,284,6.9,6.9,57,0.00,CLR,,0.00,WeatherDisplay:10.37,2013-02-08 22:32:00,
2013-02-08 14:37:00,61.4,46.0,29.99,NW,309,11.5,11.5,57,0.00,CLR,,0.00,WeatherDisplay:10.37,2013-02-08 22:37:00,
2013-02-08 14:42:00,61.1,45.7,29.99,WNW,295,5.8,5.8,57,0.00,CLR,,0.00,WeatherDisplay:10.37,2013-02-08 22:42:00,
2013-02-08 14:47:00,61.1,45.7,29.99,North,356,5.6,5.6,57,0.00,CLR,,0.00,WeatherDisplay:10.37,2013-02-08 22:47:00,
2013-02-08 14:52:00,61.4,46.0,29.99,West,272,4.8,4.8,57,0.00,CLR,,0.00,WeatherDisplay:10.37,2013-02-08 22:52:00,
2013-02-08 14:57:00,61.6,46.2,29.99,West,265,11.5,11.5,57,0.00,CLR,,0.00,WeatherDisplay:10.37,2013-02-08 22:57:00,
2013-02-08 15:02:00,60.8,45.5,29.99,NW,305,8.1,8.1,57,0.00,CLR,,0.00,WeatherDisplay:10.37,2013-02-08 23:02:00,
2013-02-08 15:07:00,60.8,45.5,29.99,West,278,8.1,8.1,57,0.00,CLR,,0.00,WeatherDisplay:10.37,2013-02-08 23:07:00,
2013-02-08 15:12:00,61.3,45.9,29.99,NW,311,6.9,6.9,57,0.00,CLR,,0.00,WeatherDisplay:10.37,2013-02-08 23:12:00,
2013-02-08 15:17:00,61.2,45.8,29.99,North,360,11.5,11.5,57,0.00,CLR,,0.00,WeatherDisplay:10.37,2013-02-08 23:17:00,
2013-02-08 15:22:00,60.8,45.5,29.99,WNW,284,5.8,5.8,57,0.00,CLR,,0.00,WeatherDisplay:10.37,2013-02-08 23:22:00,
2013-02-08 15:27:00,61.2,45.8,29.99,North,360,9.2,9.2,57,0.00,CLR,,0.00,WeatherDisplay:10.37,2013-02-08 23:27:00,
2013-02-08 15:32:00,61.5,46.1,29.99,West,272,6.9,6.9,57,0.00,CLR,,0.00,WeatherDisplay:10.37,2013-02-08 23:32:00,
2013-02-08 15:37:00,61.0,45.7,29.99,NW,313,10.4,10.4,57,0.00,CLR,,0.00,WeatherDisplay:10.37,2013-02-08 23:37:00,
2013-02-08 15:42:00,60.6,45.3,29.99,NW,320,6.5,6.5,57,0.00,CLR,,0.00,WeatherDisplay:10.37,2013-02-08 23:42:00,
2013-02-08 15:47:00,60.5,45.2,29.99,NW,315,6.9,6.9,57,0.00,CLR,,0.00,WeatherDisplay:10.37,2013-02-08 23:47:00,
2013-02-08 15:52:00,59.8,44.5,29.99,NW,308,11.5,11.5,57,0.00,CLR,,0.00,WeatherDisplay:10.37,2013-02-08 23:52:00,
2013-02-08 15:57:00,59.6,44.3,29.99,North,357,12.7,12.7,57,0.00,CLR,,0.00,WeatherDisplay:10.37,2013-02-08 23:57:00,
2013-02-08 16:02:00,59.4,44.2,29.99,North,360,10.4,10.4,57,0.00,CLR,,0.00,WeatherDisplay:10.37,2013-02-09 00:02:00,
2013-02-08 16:07:00,59.1,43.9,29.99,NNW,330,8.1,8.1,57,0.00,CLR,,0.00,WeatherDisplay:10.37,2013-02-09 00:07:00,
2013-02-08 16:12:00,59.0,43.8,29.99,North,7,7.5,7.5,57,0.00,CLR,,0.00,WeatherDisplay:10.37,2013-02-09 00:12:00,
2013-02-08 16:17:00,58.8,43.6,29.99,North,7,9.2,9.2,57,0.00,CLR,,0.00,WeatherDisplay:10.37,2013-02-09 00:17:00,
2013-02-08 16:22:00,58.7,43.5,29.99,NNW,332,6.9,6.9,57,0.00,CLR,,0.00,WeatherDisplay:10.37,2013-02-09 00:22:00,
2013-02-08 16:27:00,58.5,43.3,29.99,NW,318,8.1,8.1,57,0.00,CLR,,0.00,WeatherDisplay:10.37,2013-02-09 00:27:00,
2013-02-08 16:32:00,58.4,43.2,29.99,NW,308,5.8,5.8,57,0.00,CLR,,0.00,WeatherDisplay:10.37,2013-02-09 00:32:00,
2013-02-08 16:37:00,58.3,43.1,30.00,WNW,291,7.9,7.9,57,0.00,CLR,,0.00,WeatherDisplay:10.37,2013-02-09 00:37:00,
2013-02-08 16:42:00,57.7,42.6,29.99,NW,315,6.9,6.9,57,0.00,CLR,,0.00,WeatherDisplay:10.37,2013-02-09 00:42:00,
2013-02-08 16:47:00,57.5,42.4,30.00,WNW,296,6.9,6.9,57,0.00,CLR,,0.00,WeatherDisplay:10.37,2013-02-09 00:47:00,
2013-02-08 16:52:00,57.5,42.4,30.00,WNW,296,3.5,3.5,57,0.00,CLR,,0.00,WeatherDisplay:10.37,2013-02-09 00:52:00,
2013-02-08 16:57:00,57.5,42.4,30.00,WNW,296,3.5,3.5,57,0.00,CLR,,0.00,WeatherDisplay:10.37,2013-02-09 00:57:00,
2013-02-08 17:02:00,57.5,42.4,30.00,WNW,296,3.5,3.5,57,0.00,CLR,,0.00,WeatherDisplay:10.37,2013-02-09 01:02:00,
2013-02-08 17:07:00,57.5,42.4,30.00,WNW,296,3.5,3.5,57,0.00,CLR,,0.00,WeatherDisplay:10.37,2013-02-09 01:07:00,
2013-02-08 17:12:00,57.5,42.4,30.00,WNW,296,3.5,3.5,57,0.00,CLR,,0.00,WeatherDisplay:10.37,2013-02-09 01:12:00,
2013-02-08 17:17:00,57.5,42.4,30.00,WNW,296,3.5,3.5,57,0.00,CLR,,0.00,WeatherDisplay:10.37,2013-02-09 01:17:00,
2013-02-08 17:22:00,55.2,40.2,29.99,North,359,4.6,4.6,57,0.00,CLR,,0.00,WeatherDisplay:10.37,2013-02-09 01:22:00,
2013-02-08 17:27:00,54.5,39.6,30.00,North,0,0.0,0.0,57,0.00,CLR,,0.00,WeatherDisplay:10.37,2013-02-09 01:27:00,
2013-02-08 17:32:00,54.1,39.2,30.00,North,1,1.1,1.1,57,0.00,CLR,,0.00,WeatherDisplay:10.37,2013-02-09 01:32:00,
2013-02-08 17:37:00,53.4,38.5,29.99,North,1,0.0,0.0,57,0.00,CLR,,0.00,WeatherDisplay:10.37,2013-02-09 01:37:00,
2013-02-08 17:42:00,52.2,37.4,29.99,North,1,0.0,0.0,57,0.00,CLR,,0.00,WeatherDisplay:10.37,2013-02-09 01:42:00,
2013-02-08 17:47:00,52.0,37.2,29.99,North,350,3.5,3.5,57,0.00,CLR,,0.00,WeatherDisplay:10.37,2013-02-09 01:47:00,
2013-02-08 17:52:00,52.3,37.5,30.00,NNW,328,3.1,3.1,57,0.00,CLR,,0.00,WeatherDisplay:10.37,2013-02-09 01:52:00,
2013-02-08 17:57:00,52.4,37.6,30.00,NW,312,1.1,1.1,57,0.00,CLR,,0.00,WeatherDisplay:10.37,2013-02-09 01:57:00,
2013-02-08 18:02:00,51.3,36.6,30.00,North,0,2.3,2.3,57,0.00,CLR,,0.00,WeatherDisplay:10.37,2013-02-09 02:02:00,
2013-02-08 18:07:00,51.2,36.5,30.00,North,1,0.0,0.0,57,0.00,CLR,,0.00,WeatherDisplay:10.37,2013-02-09 02:07:00,
2013-02-08 18:12:00,50.8,36.1,30.00,NNW,344,2.3,2.3,57,0.00,CLR,,0.00,WeatherDisplay:10.37,2013-02-09 02:12:00,
2013-02-08 18:17:00,50.7,36.0,30.00,NNW,332,1.1,1.1,57,0.00,CLR,,0.00,WeatherDisplay:10.37,2013-02-09 02:17:00,
2013-02-08 18:22:00,49.9,35.3,30.00,NNW,332,0.0,0.0,57,0.00,CLR,,0.00,WeatherDisplay:10.37,2013-02-09 02:22:00,
2013-02-08 18:27:00,49.6,35.0,30.00,NW,304,2.7,2.7,57,0.00,CLR,,0.00,WeatherDisplay:10.37,2013-02-09 02:27:00,
2013-02-08 18:32:00,50.1,35.4,30.00,North,0,0.0,0.0,57,0.00,CLR,,0.00,WeatherDisplay:10.37,2013-02-09 02:32:00,
2013-02-08 18:37:00,50.3,35.6,30.00,NW,323,4.6,4.6,57,0.00,CLR,,0.00,WeatherDisplay:10.37,2013-02-09 02:37:00,
2013-02-08 18:43:00,50.5,35.8,30.00,NW,304,2.9,2.9,57,0.00,CLR,,0.00,WeatherDisplay:10.37,2013-02-09 02:43:00,
2013-02-08 18:48:00,50.3,35.6,30.00,West,268,3.5,3.5,57,0.00,CLR,,0.00,WeatherDisplay:10.37,2013-02-09 02:48:00,
2013-02-08 18:53:00,50.3,35.6,30.00,WNW,284,2.3,2.3,57,0.00,CLR,,0.00,WeatherDisplay:10.37,2013-02-09 02:53:00,
2013-02-08 18:58:00,50.1,35.4,30.00,NW,313,2.3,2.3,57,0.00,CLR,,0.00,WeatherDisplay:10.37,2013-02-09 02:58:00,
2013-02-08 19:03:00,49.9,29.9,30.00,WNW,298,3.5,3.5,46,0.00,CLR,,0.00,WeatherDisplay:10.37,2013-02-09 03:03:00,
2013-02-08 19:08:00,50.2,30.2,30.00,NW,305,2.3,2.3,46,0.00,CLR,,0.00,WeatherDisplay:10.37,2013-02-09 03:08:00,
2013-02-08 19:13:00,50.2,30.2,30.00,NW,304,3.5,3.5,46,0.00,CLR,,0.00,WeatherDisplay:10.37,2013-02-09 03:13:00,
2013-02-08 19:18:00,49.7,29.7,30.00,WNW,298,5.8,5.8,46,0.00,CLR,,0.00,WeatherDisplay:10.37,2013-02-09 03:18:00,
2013-02-08 19:23:00,49.7,29.7,30.00,WNW,296,5.1,5.1,46,0.00,CLR,,0.00,WeatherDisplay:10.37,2013-02-09 03:23:00,
2013-02-08 19:28:00,49.9,29.9,30.00,NW,304,4.6,4.6,46,0.00,CLR,,0.00,WeatherDisplay:10.37,2013-02-09 03:28:00,
2013-02-08 19:33:00,49.8,29.8,30.00,NNW,328,4.6,4.6,46,0.00,CLR,,0.00,WeatherDisplay:10.37,2013-02-09 03:33:00,
2013-02-08 19:38:00,49.8,29.8,30.00,WNW,296,4.6,4.6,46,0.00,CLR,,0.00,WeatherDisplay:10.37,2013-02-09 03:38:00,
2013-02-08 19:43:00,49.8,29.8,30.01,NW,325,5.8,5.8,46,0.00,CLR,,0.00,WeatherDisplay:10.37,2013-02-09 03:43:00,
2013-02-08 19:48:00,50.0,30.0,30.00,WSW,258,5.8,5.8,46,0.00,CLR,,0.00,WeatherDisplay:10.37,2013-02-09 03:48:00,
2013-02-08 19:53:00,50.1,30.1,30.00,North,360,4.6,4.6,46,0.00,CLR,,0.00,WeatherDisplay:10.37,2013-02-09 03:53:00,
2013-02-08 19:58:00,50.2,30.2,30.00,NNE,13,6.9,6.9,46,0.00,CLR,,0.00,WeatherDisplay:10.37,2013-02-09 03:58:00,
2013-02-08 20:03:00,50.6,30.6,30.00,NW,305,6.9,6.9,46,0.00,CLR,,0.00,WeatherDisplay:10.37,2013-02-09 04:03:00,
2013-02-08 20:08:00,50.7,30.7,30.00,NW,320,3.0,7.0,46,0.00,CLR,,0.00,WeatherDisplay:10.37,2013-02-09 04:08:00,
2013-02-08 20:13:00,50.9,29.2,30.00,NW,321,5.0,9.0,43,0.00,CLR,,0.00,WeatherDisplay:10.37,2013-02-09 04:13:00,
2013-02-08 20:18:00,51.0,29.3,30.01,NNW,332,6.9,6.9,43,0.00,CLR,,0.00,WeatherDisplay:10.37,2013-02-09 04:18:00,
2013-02-08 20:23:00,50.8,29.1,30.00,NW,318,5.0,9.0,43,0.00,CLR,,0.00,WeatherDisplay:10.37,2013-02-09 04:23:00,
2013-02-08 20:28:00,50.7,29.0,30.01,NW,309,5.0,8.0,43,0.00,CLR,,0.00,WeatherDisplay:10.37,2013-02-09 04:28:00,
2013-02-08 20:33:00,50.3,28.6,30.01,NW,307,2.0,7.0,43,0.00,CLR,,0.00,WeatherDisplay:10.37,2013-02-09 04:33:00,
2013-02-08 20:38:00,50.0,28.3,30.01,NW,307,3.0,8.0,43,0.00,CLR,,0.00,WeatherDisplay:10.37,2013-02-09 04:38:00,
2013-02-08 20:43:00,49.8,28.2,30.01,NW,304,3.0,5.0,43,0.00,CLR,,0.00,WeatherDisplay:10.37,2013-02-09 04:43:00,
2013-02-08 20:48:00,49.9,28.3,30.01,WNW,296,5.8,5.8,43,0.00,CLR,,0.00,WeatherDisplay:10.37,2013-02-09 04:48:00,
2013-02-08 20:53:00,49.8,28.1,30.01,NW,312,3.0,7.0,43,0.00,CLR,,0.00,WeatherDisplay:10.37,2013-02-09 04:53:00,
2013-02-08 20:58:00,50.0,28.3,30.01,NW,311,3.0,7.0,43,0.00,CLR,,0.00,WeatherDisplay:10.37,2013-02-09 04:58:00,
2013-02-08 21:00:00,49.8,28.2,30.01,NW,322,5.8,5.8,43,0.00,CLR,,0.00,WeatherDisplay:10.37,2013-02-09 05:00:00,
2013-02-08 21:05:00,49.7,28.1,30.01,WNW,285,5.8,5.8,43,0.00,CLR,,0.00,WeatherDisplay:10.37,2013-02-09 05:05:00,
2013-02-08 21:10:00,49.8,28.2,30.01,West,271,9.2,9.2,43,0.00,CLR,,0.00,WeatherDisplay:10.37,2013-02-09 05:10:00,
2013-02-08 21:15:00,49.8,28.2,30.01,NW,306,6.9,6.9,43,0.00,CLR,,0.00,WeatherDisplay:10.37,2013-02-09 05:15:00,
2013-02-08 21:20:00,49.9,26.5,30.01,NNW,336,5.8,5.8,40,0.00,CLR,,0.00,WeatherDisplay:10.37,2013-02-09 05:20:00,
2013-02-08 21:25:00,50.0,26.6,30.01,NNW,339,5.8,5.8,40,0.00,CLR,,0.00,WeatherDisplay:10.37,2013-02-09 05:25:00,
2013-02-08 21:30:00,50.1,26.7,30.01,NW,308,10.4,10.4,40,0.00,CLR,,0.00,WeatherDisplay:10.37,2013-02-09 05:30:00,
2013-02-08 21:35:00,50.4,27.0,30.01,North,357,8.1,8.1,40,0.00,CLR,,0.00,WeatherDisplay:10.37,2013-02-09 05:35:00,
2013-02-08 21:40:00,50.7,27.2,30.02,NW,319,8.8,8.8,40,0.00,CLR,,0.00,WeatherDisplay:10.37,2013-02-09 05:40:00,
2013-02-08 21:45:00,51.0,27.5,30.02,North,4,12.7,12.7,40,0.00,CLR,,0.00,WeatherDisplay:10.37,2013-02-09 05:45:00,
2013-02-08 21:50:00,51.0,27.5,30.02,NNW,337,8.1,8.1,40,0.00,CLR,,0.00,WeatherDisplay:10.37,2013-02-09 05:50:00,
2013-02-08 21:55:00,50.9,27.4,30.02,NW,315,5.8,5.8,40,0.00,CLR,,0.00,WeatherDisplay:10.37,2013-02-09 05:55:00,
2013-02-08 22:00:00,50.7,27.2,30.02,NW,319,4.9,4.9,40,0.00,CLR,,0.00,WeatherDisplay:10.37,2013-02-09 06:00:00,
2013-02-08 22:05:00,50.6,27.1,30.02,NW,313,11.5,11.5,40,0.00,CLR,,0.00,WeatherDisplay:10.37,2013-02-09 06:05:00,
2013-02-08 22:10:00,50.7,24.7,30.02,NW,320,5.5,5.5,36,0.00,CLR,,0.00,WeatherDisplay:10.37,2013-02-09 06:10:00,
2013-02-08 22:15:00,50.8,24.8,30.02,NNW,339,8.1,8.1,36,0.00,CLR,,0.00,WeatherDisplay:10.37,2013-02-09 06:15:00,
2013-02-08 22:20:00,50.8,24.8,30.02,NW,313,5.8,5.8,36,0.00,CLR,,0.00,WeatherDisplay:10.37,2013-02-09 06:20:00,
2013-02-08 22:25:00,50.5,24.5,30.02,NW,323,3.9,3.9,36,0.00,CLR,,0.00,WeatherDisplay:10.37,2013-02-09 06:25:00,
2013-02-08 22:30:00,50.3,24.3,30.02,NNW,340,3.5,3.5,36,0.00,CLR,,0.00,WeatherDisplay:10.37,2013-02-09 06:30:00,
2013-02-08 22:35:00,50.6,24.6,30.02,NNW,328,6.9,6.9,36,0.00,CLR,,0.00,WeatherDisplay:10.37,2013-02-09 06:35:00,
2013-02-08 22:40:00,51.0,25.0,30.02,NNW,339,6.9,6.9,36,0.00,CLR,,0.00,WeatherDisplay:10.37,2013-02-09 06:40:00,
2013-02-08 22:45:00,50.6,24.6,30.02,West,281,8.1,8.1,36,0.00,CLR,,0.00,WeatherDisplay:10.37,2013-02-09 06:45:00,
2013-02-08 22:50:00,51.2,25.1,30.02,WNW,294,11.5,11.5,36,0.00,CLR,,0.00,WeatherDisplay:10.37,2013-02-09 06:50:00,
2013-02-08 22:55:00,50.9,24.9,30.03,NW,311,6.9,6.9,36,0.00,CLR,,0.00,WeatherDisplay:10.37,2013-02-09 06:55:00,
2013-02-08 23:00:00,50.9,24.9,30.03,North,360,12.3,12.3,36,0.00,CLR,,0.00,WeatherDisplay:10.37,2013-02-09 07:00:00,
2013-02-08 23:05:00,51.1,25.0,30.03,NNW,340,10.4,10.4,36,0.00,CLR,,0.00,WeatherDisplay:10.37,2013-02-09 07:05:00,
2013-02-08 23:10:00,50.8,23.4,30.03,NNW,335,6.9,6.9,34,0.00,CLR,,0.00,WeatherDisplay:10.37,2013-02-09 07:10:00,
2013-02-08 23:15:00,50.9,23.5,30.03,NNW,332,5.8,5.8,34,0.00,CLR,,0.00,WeatherDisplay:10.37,2013-02-09 07:15:00,
2013-02-08 23:20:00,50.1,22.8,30.03,NW,326,3.5,4.2,34,0.00,CLR,,0.00,WeatherDisplay:10.37,2013-02-09 07:20:00,
2013-02-08 23:25:00,50.4,23.1,30.03,North,6,5.6,5.6,34,0.00,CLR,,0.00,WeatherDisplay:10.37,2013-02-09 07:25:00,
2013-02-08 23:30:00,50.2,22.9,30.04,NW,316,5.8,5.8,34,0.00,CLR,,0.00,WeatherDisplay:10.37,2013-02-09 07:30:00,
2013-02-08 23:35:00,49.8,22.5,30.04,West,280,4.3,4.3,34,0.00,CLR,,0.00,WeatherDisplay:10.37,2013-02-09 07:35:00,
2013-02-08 23:40:00,49.9,22.6,30.04,North,352,8.1,8.1,34,0.00,CLR,,0.00,WeatherDisplay:10.37,2013-02-09 07:40:00,
2013-02-08 23:45:00,49.9,22.6,30.04,West,263,5.8,5.8,34,0.00,CLR,,0.00,WeatherDisplay:10.37,2013-02-09 07:45:00,
2013-02-08 23:50:00,49.8,22.5,30.04,NNE,28,6.9,6.9,34,0.00,CLR,,0.00,WeatherDisplay:10.37,2013-02-09 07:50:00,
2013-02-08 23:55:00,50.0,22.7,30.04,WSW,243,12.7,12.7,34,0.00,CLR,,0.00,WeatherDisplay:10.37,2013-02-09 07:55:00,